createdAt,value
2023-11-10T00:03:00.348Z,0.60
2023-11-10T00:06:25.252Z,0.50
2023-11-10T00:09:49.248Z,0.50
2023-11-10T00:13:13.222Z,0.40
2023-11-10T00:16:36.216Z,0.47
2023-11-10T00:19:59.245Z,0.68
2023-11-10T00:23:23.270Z,0.70
2023-11-10T00:26:48.247Z,0.50
2023-11-10T00:30:11.279Z,0.40
2023-11-10T00:33:35.287Z,0.40
2023-11-10T00:36:59.273Z,0.65
2023-11-10T00:40:24.221Z,0.50
2023-11-10T00:43:48.235Z,0.50
2023-11-10T00:47:13.218Z,0.40
2023-11-10T00:50:36.263Z,0.68
2023-11-10T00:53:59.243Z,0.68
2023-11-10T00:57:23.283Z,0.70
2023-11-10T01:00:49.108Z,0.65
2023-11-10T01:04:13.352Z,0.40
2023-11-10T01:07:37.259Z,0.50
2023-11-10T01:11:01.295Z,0.80
2023-11-10T01:14:24.256Z,0.65
2023-11-10T01:17:49.320Z,0.50
2023-11-10T01:21:13.280Z,0.50
2023-11-10T01:24:38.296Z,0.60
2023-11-10T01:28:05.286Z,0.55
2023-11-10T01:31:29.286Z,0.50
2023-11-10T01:34:52.268Z,0.60
2023-11-10T01:38:17.307Z,0.50
2023-11-10T01:41:42.337Z,0.70
2023-11-10T01:45:05.260Z,0.52
2023-11-10T01:48:29.394Z,0.50
2023-11-10T01:51:53.267Z,0.50
2023-11-10T01:55:17.374Z,0.60
2023-11-10T01:58:33.901Z,0.50
2023-11-10T02:01:54.358Z,0.47
2023-11-10T02:05:17.282Z,0.50
2023-11-10T02:08:41.318Z,0.80
2023-11-10T02:12:04.295Z,0.40
2023-11-10T02:15:28.339Z,0.50
2023-11-10T02:18:53.319Z,0.55
2023-11-10T02:22:17.307Z,0.57
2023-11-10T02:25:41.309Z,0.50
2023-11-10T02:29:05.347Z,0.50
2023-11-10T02:32:29.344Z,0.57
2023-11-10T02:35:53.327Z,1.05
2023-11-10T02:39:16.343Z,0.60
2023-11-10T02:42:39.395Z,0.77
2023-11-10T02:45:55.383Z,0.57
2023-11-10T02:49:18.304Z,0.52
2023-11-10T02:52:43.366Z,0.60
2023-11-10T02:56:07.314Z,0.70
2023-11-10T02:59:31.318Z,0.43
2023-11-10T03:02:56.413Z,0.50
2023-11-10T03:06:20.478Z,0.50
2023-11-10T03:09:44.346Z,0.63
2023-11-10T03:13:07.355Z,0.60
2023-11-10T03:16:31.296Z,0.90
2023-11-10T03:19:54.330Z,0.60
2023-11-10T03:23:18.329Z,0.57
2023-11-10T03:26:41.362Z,0.70
2023-11-10T03:30:05.338Z,0.60
2023-11-10T03:33:23.364Z,0.80
2023-11-10T03:36:47.406Z,0.50
2023-11-10T03:40:12.388Z,0.60
2023-11-10T03:43:35.378Z,0.73
2023-11-10T03:46:59.374Z,0.90
2023-11-10T03:50:22.370Z,0.90
2023-11-10T03:53:47.371Z,0.60
2023-11-10T03:57:10.346Z,1.20
2023-11-10T04:00:41.739Z,0.60
2023-11-10T04:04:10.471Z,0.77
2023-11-10T04:07:33.486Z,0.60
2023-11-10T04:10:56.352Z,0.60
2023-11-10T04:14:13.396Z,0.80
2023-11-10T04:17:37.394Z,0.57
2023-11-10T04:21:00.389Z,0.57
2023-11-10T04:24:24.387Z,0.70
2023-11-10T04:27:48.430Z,0.50
2023-11-10T04:31:11.435Z,0.38
2023-11-10T04:34:35.459Z,0.55
2023-11-10T04:37:59.434Z,0.55
2023-11-10T04:41:26.444Z,0.80
2023-11-10T04:44:49.386Z,0.50
2023-11-10T04:48:13.444Z,0.50
2023-11-10T04:51:38.451Z,0.50
2023-11-10T04:55:01.455Z,0.50
2023-11-10T04:58:24.432Z,0.65
2023-11-10T05:01:51.448Z,0.60
2023-11-10T05:05:16.754Z,0.70
2023-11-10T05:08:41.381Z,0.88
2023-11-10T05:12:05.385Z,0.50
2023-11-10T05:15:23.035Z,0.57
2023-11-10T05:22:15.399Z,0.65
2023-11-10T05:25:39.437Z,0.50
2023-11-10T05:29:04.402Z,0.50
2023-11-10T05:32:28.582Z,0.70
2023-11-10T05:35:52.409Z,0.50
2023-11-10T05:39:17.443Z,0.50
2023-11-10T05:42:40.431Z,0.50
2023-11-10T05:46:04.668Z,0.70
2023-11-10T05:49:29.397Z,0.70
2023-11-10T05:52:53.527Z,0.60
2023-11-10T05:56:21.764Z,0.65
2023-11-10T05:59:46.596Z,0.50
2023-11-10T06:03:11.611Z,0.65
2023-11-10T06:06:36.534Z,0.45
2023-11-10T06:10:00.452Z,0.60
2023-11-10T06:13:23.444Z,0.50
2023-11-10T06:16:45.156Z,0.70
2023-11-10T06:20:11.459Z,0.50
2023-11-10T06:23:36.418Z,0.60
2023-11-10T06:27:01.528Z,0.68
2023-11-10T06:30:28.491Z,0.70
2023-11-10T06:33:51.499Z,0.70
2023-11-10T06:37:14.454Z,0.70
2023-11-10T06:40:37.484Z,0.60
2023-11-10T06:44:01.451Z,0.50
2023-11-10T06:47:25.608Z,0.43
2023-11-10T06:50:43.458Z,0.70
2023-11-10T06:54:07.441Z,1.00
2023-11-10T06:57:32.480Z,0.70
2023-11-10T07:00:57.488Z,0.80
2023-11-10T07:04:21.575Z,0.80
2023-11-10T07:07:45.460Z,0.80
2023-11-10T07:11:10.778Z,0.88
2023-11-10T07:14:33.652Z,0.73
2023-11-10T07:17:56.511Z,0.90
2023-11-10T07:21:22.497Z,0.80
2023-11-10T07:24:45.489Z,0.70
2023-11-10T07:28:12.468Z,1.00
2023-11-10T07:31:37.548Z,0.77
2023-11-10T07:35:02.636Z,0.80
2023-11-10T07:38:26.491Z,1.17
2023-11-10T07:41:51.445Z,0.73
2023-11-10T07:45:14.502Z,1.15
2023-11-10T07:48:37.593Z,0.82
2023-11-10T07:52:03.527Z,0.80
2023-11-10T07:55:27.465Z,0.90
2023-11-10T07:58:51.530Z,0.70
2023-11-10T08:02:14.459Z,0.88
2023-11-10T08:05:39.510Z,0.70
2023-11-10T08:09:03.471Z,0.73
2023-11-10T08:12:26.556Z,0.80
2023-11-10T08:15:52.554Z,0.80
2023-11-10T08:19:15.499Z,0.70
2023-11-10T08:22:40.467Z,0.80
2023-11-10T08:26:03.515Z,0.80
2023-11-10T08:29:27.499Z,1.00
2023-11-10T08:32:51.527Z,1.02
2023-11-10T08:36:15.522Z,0.82
2023-11-10T08:39:38.526Z,0.95
2023-11-10T08:43:01.600Z,0.95
2023-11-10T08:46:19.402Z,0.90
2023-11-10T08:49:36.601Z,1.13
2023-11-10T08:52:59.497Z,1.40
2023-11-10T08:56:22.529Z,1.10
2023-11-10T08:59:46.506Z,1.70
2023-11-10T09:03:09.575Z,2.00
2023-11-10T09:06:32.527Z,2.33
2023-11-10T09:09:59.567Z,2.20
2023-11-10T09:13:22.515Z,2.50
2023-11-10T09:16:45.684Z,2.50
2023-11-10T09:20:11.096Z,3.20
2023-11-10T09:23:37.553Z,2.53
2023-11-10T09:27:00.492Z,2.35
2023-11-10T09:30:23.564Z,2.25
2023-11-10T09:33:47.565Z,1.70
2023-11-10T09:37:13.532Z,1.50
2023-11-10T09:40:37.533Z,1.40
2023-11-10T09:44:02.559Z,1.40
2023-11-10T09:47:20.145Z,1.70
2023-11-10T09:50:38.722Z,1.60
2023-11-10T09:54:01.512Z,1.20
2023-11-10T09:57:28.138Z,1.50
2023-11-10T10:00:52.554Z,1.23
2023-11-10T10:04:16.602Z,1.40
2023-11-10T10:07:40.551Z,1.75
2023-11-10T10:11:05.550Z,1.05
2023-11-10T10:14:28.533Z,1.50
2023-11-10T10:17:52.668Z,1.10
2023-11-10T10:21:15.566Z,1.00
2023-11-10T10:24:38.601Z,0.80
2023-11-10T10:28:02.576Z,1.20
2023-11-10T10:31:21.790Z,0.75
2023-11-10T10:34:48.538Z,1.10
2023-11-10T10:38:18.556Z,0.90
2023-11-10T10:41:43.537Z,0.90
2023-11-10T10:45:08.250Z,0.90
2023-11-10T10:48:25.290Z,1.00
2023-11-10T10:51:47.565Z,0.88
2023-11-10T10:55:10.597Z,0.90
2023-11-10T10:58:37.678Z,0.90
2023-11-10T11:02:01.590Z,0.80
2023-11-10T11:05:51.599Z,0.90
2023-11-10T11:09:15.598Z,1.00
2023-11-10T11:13:31.632Z,0.95
2023-11-10T11:17:09.611Z,0.77
2023-11-10T11:20:32.560Z,0.80
2023-11-10T11:23:55.595Z,0.80
2023-11-10T11:27:22.697Z,0.77
2023-11-10T11:30:51.607Z,0.80
2023-11-10T11:34:19.585Z,1.55
2023-11-10T11:37:48.701Z,1.10
2023-11-10T11:41:12.636Z,1.10
2023-11-10T11:44:47.586Z,1.48
2023-11-10T11:48:13.563Z,1.73
2023-11-10T11:51:37.635Z,2.10
2023-11-10T11:55:03.655Z,1.20
2023-11-10T11:58:29.581Z,1.67
2023-11-10T12:01:58.752Z,1.17
2023-11-10T12:05:23.608Z,0.90
2023-11-10T12:08:47.591Z,0.90
2023-11-10T12:12:11.675Z,1.30
2023-11-10T12:15:37.651Z,1.20
2023-11-10T12:19:06.682Z,1.00
2023-11-10T12:22:31.594Z,0.70
2023-11-10T12:25:54.596Z,0.80
2023-11-10T12:29:30.970Z,1.00
2023-11-10T12:32:56.638Z,1.10
2023-11-10T12:36:22.608Z,0.80
2023-11-10T12:39:47.663Z,0.82
2023-11-10T12:43:12.597Z,0.80
2023-11-10T12:46:36.751Z,1.15
2023-11-10T12:50:01.615Z,1.45
2023-11-10T12:53:25.600Z,1.23
2023-11-10T12:56:50.946Z,1.27
2023-11-10T13:00:28.331Z,1.30
2023-11-10T13:03:47.710Z,1.17
2023-11-10T13:07:12.626Z,1.25
2023-11-10T13:10:36.666Z,1.20
2023-11-10T13:14:01.159Z,1.13
2023-11-10T13:17:27.743Z,1.30
2023-11-10T13:20:50.655Z,1.27
2023-11-10T13:24:14.626Z,1.15
2023-11-10T13:27:40.718Z,1.20
2023-11-10T13:31:11.753Z,1.13
2023-11-10T13:34:40.620Z,1.70
2023-11-10T13:38:05.661Z,1.30
2023-11-10T13:41:36.583Z,0.90
2023-11-10T13:45:04.639Z,1.10
2023-11-10T13:48:29.682Z,1.38
2023-11-10T13:51:52.646Z,1.13
2023-11-10T13:55:15.703Z,1.15
2023-11-10T13:58:38.632Z,1.40
2023-11-10T14:02:02.702Z,0.80
2023-11-10T14:05:26.638Z,1.10
2023-11-10T14:08:49.668Z,1.30
2023-11-10T14:12:12.625Z,1.23
2023-11-10T14:15:36.814Z,1.40
2023-11-10T14:19:00.639Z,1.05
2023-11-10T14:22:25.761Z,1.08
2023-11-10T14:25:51.611Z,1.10
2023-11-10T14:29:15.676Z,0.90
2023-11-10T14:32:40.698Z,1.00
2023-11-10T14:36:04.170Z,1.20
2023-11-10T14:39:30.741Z,0.85
2023-11-10T14:42:55.819Z,0.90
2023-11-10T14:46:23.702Z,1.65
2023-11-10T14:49:53.673Z,1.25
2023-11-10T14:53:42.969Z,1.40
2023-11-10T14:57:08.682Z,1.30
2023-11-10T15:00:31.941Z,1.10
2023-11-10T15:03:56.747Z,1.42
2023-11-10T15:07:22.705Z,1.38
2023-11-10T15:10:45.783Z,1.40
2023-11-10T15:14:09.671Z,1.40
2023-11-10T15:17:34.687Z,1.23
2023-11-10T15:20:59.681Z,1.10
2023-11-10T15:24:22.833Z,1.00
2023-11-10T15:27:45.686Z,1.00
2023-11-10T15:31:09.738Z,1.10
2023-11-10T15:34:34.693Z,1.00
2023-11-10T15:38:02.676Z,0.90
2023-11-10T15:41:26.698Z,1.00
2023-11-10T15:44:50.681Z,0.95
2023-11-10T15:48:13.756Z,0.80
2023-11-10T15:51:44.848Z,0.80
2023-11-10T15:55:20.688Z,1.10
2023-11-10T15:58:43.695Z,1.00
2023-11-10T16:02:07.907Z,1.15
2023-11-10T16:05:26.405Z,1.00
2023-11-10T16:08:45.722Z,0.90
2023-11-10T16:12:03.367Z,1.00
2023-11-10T16:15:21.725Z,1.10
2023-11-10T16:18:46.710Z,1.30
2023-11-10T16:22:10.798Z,1.10
2023-11-10T16:25:34.705Z,1.13
2023-11-10T16:29:00.714Z,1.20
2023-11-10T16:32:25.717Z,1.02
2023-11-10T16:35:49.737Z,1.10
2023-11-10T16:39:14.724Z,1.73
2023-11-10T16:42:39.757Z,1.40
2023-11-10T16:46:03.834Z,1.00
2023-11-10T16:49:30.737Z,1.20
2023-11-10T16:52:53.709Z,1.30
2023-11-10T16:56:16.716Z,1.70
2023-11-10T16:59:42.715Z,1.70
2023-11-10T17:03:05.822Z,2.10
2023-11-10T17:06:28.693Z,2.05
2023-11-10T17:09:52.835Z,1.70
2023-11-10T17:13:09.501Z,1.50
2023-11-10T17:16:29.863Z,1.60
2023-11-10T17:19:53.708Z,1.83
2023-11-10T17:23:17.969Z,1.50
2023-11-10T17:26:42.723Z,1.50
2023-11-10T17:30:05.744Z,1.70
2023-11-10T17:33:29.709Z,1.60
2023-11-10T17:36:53.871Z,1.80
2023-11-10T17:40:17.773Z,1.63
2023-11-10T17:43:41.768Z,1.83
2023-11-10T17:47:04.724Z,1.60
2023-11-10T17:50:28.772Z,1.90
2023-11-10T17:53:53.710Z,2.08
2023-11-10T17:57:17.768Z,1.90
2023-11-10T18:00:42.740Z,1.70
2023-11-10T18:04:05.818Z,1.75
2023-11-10T18:07:30.709Z,1.60
2023-11-10T18:10:54.773Z,1.80
2023-11-10T18:14:13.390Z,1.67
2023-11-10T18:17:29.843Z,1.52
2023-11-10T18:20:55.722Z,1.30
2023-11-10T18:24:19.031Z,1.23
2023-11-10T18:27:41.748Z,1.30
2023-11-10T18:31:04.868Z,1.40
2023-11-10T18:34:28.752Z,1.30
2023-11-10T18:37:51.826Z,1.30
2023-11-10T18:41:17.752Z,1.42
2023-11-10T18:44:40.732Z,1.00
2023-11-10T18:48:05.734Z,1.70
2023-11-10T18:51:28.752Z,1.30
2023-11-10T18:54:53.763Z,1.73
2023-11-10T18:58:17.831Z,1.50
2023-11-10T19:01:41.878Z,1.30
2023-11-10T19:05:05.880Z,1.58
2023-11-10T19:08:28.753Z,2.10
2023-11-10T19:11:53.964Z,2.45
2023-11-10T19:15:17.751Z,1.60
2023-11-10T19:18:43.881Z,1.20
2023-11-10T19:22:06.864Z,1.40
2023-11-10T19:25:30.815Z,1.50
2023-11-10T19:28:53.798Z,1.80
2023-11-10T19:32:17.959Z,1.35
2023-11-10T19:35:43.793Z,1.25
2023-11-10T19:39:07.790Z,1.40
2023-11-10T19:42:31.764Z,1.20
2023-11-10T19:45:55.818Z,1.05
2023-11-10T19:49:18.823Z,1.33
2023-11-10T19:52:41.825Z,1.00
2023-11-10T19:56:05.799Z,1.95
2023-11-10T19:59:29.823Z,1.20
2023-11-10T20:02:53.815Z,1.00
2023-11-10T20:06:19.847Z,0.95
2023-11-10T20:09:42.793Z,1.13
2023-11-10T20:13:06.881Z,1.20
2023-11-10T20:16:33.800Z,1.33
2023-11-10T20:19:57.872Z,1.27
2023-11-10T20:23:28.779Z,1.58
2023-11-10T20:26:52.847Z,0.95
2023-11-10T20:30:19.808Z,1.05
2023-11-10T20:33:43.116Z,1.20
2023-11-10T20:37:06.807Z,1.40
2023-11-10T20:40:29.920Z,1.13
2023-11-10T20:43:53.784Z,1.00
2023-11-10T20:47:16.942Z,1.20
2023-11-10T20:50:40.790Z,1.13
2023-11-10T20:54:04.948Z,1.42
2023-11-10T20:57:27.809Z,1.38
2023-11-10T21:00:51.853Z,1.25
2023-11-10T21:04:18.963Z,1.30
2023-11-10T21:07:42.818Z,1.20
2023-11-10T21:11:08.826Z,1.20
2023-11-10T21:14:33.958Z,1.20
2023-11-10T21:17:58.905Z,1.33
2023-11-10T21:21:25.902Z,1.35
2023-11-10T21:24:49.826Z,1.50
2023-11-10T21:28:16.833Z,1.20
2023-11-10T21:31:40.884Z,1.23
2023-11-10T21:35:06.999Z,1.17
2023-11-10T21:38:32.839Z,0.93
2023-11-10T21:42:03.028Z,0.90
2023-11-10T21:45:27.873Z,1.48
2023-11-10T21:48:51.001Z,1.00
2023-11-10T21:52:13.848Z,1.10
2023-11-10T21:55:37.856Z,1.13
2023-11-10T21:59:00.830Z,0.90
2023-11-10T22:02:24.843Z,1.00
2023-11-10T22:05:50.849Z,1.10
2023-11-10T22:09:14.868Z,0.90
2023-11-10T22:12:39.956Z,1.10
2023-11-10T22:16:02.878Z,1.05
2023-11-10T22:19:25.880Z,0.90
2023-11-10T22:22:51.878Z,1.20
2023-11-10T22:26:14.866Z,1.10
2023-11-10T22:29:37.895Z,1.00
2023-11-10T22:33:01.992Z,1.10
2023-11-10T22:36:25.935Z,1.30
2023-11-10T22:39:48.893Z,1.20
2023-11-10T22:43:07.570Z,1.17
2023-11-10T22:46:25.916Z,0.90
2023-11-10T22:49:48.878Z,1.00
2023-11-10T22:53:14.985Z,1.10
2023-11-10T22:56:37.896Z,0.90
2023-11-10T23:00:02.334Z,1.00
2023-11-10T23:03:27.024Z,1.10
2023-11-10T23:06:50.857Z,1.10
2023-11-10T23:10:13.867Z,1.10
2023-11-10T23:13:37.889Z,0.88
2023-11-10T23:17:02.927Z,1.02
2023-11-10T23:20:33.587Z,1.02
2023-11-10T23:23:59.895Z,1.10
2023-11-10T23:27:22.934Z,0.90
2023-11-10T23:30:48.958Z,1.00
2023-11-10T23:34:12.904Z,1.20
2023-11-10T23:37:38.919Z,1.08
2023-11-10T23:41:04.910Z,1.00
2023-11-10T23:44:30.554Z,1.17
2023-11-10T23:47:56.959Z,1.02
2023-11-10T23:51:21.988Z,1.33
2023-11-10T23:54:45.992Z,1.20
2023-11-10T23:58:08.935Z,1.20
